Grand Princess — ZCBU5 — position and weather

sailwx.info

Track history (hours):
 
Tides and Currents Weather Stations Pressure Air Temp Water Temp Dewpoint Dewpoint Depression Visibility Wind Speed Wind Dir Waves Ship Positions

Grand Princess

Operator: Princess Cruises

Last reported at 2015-Jun-29 09:00 UTC. Time now 2015-Jul-02 21:28 UTC.
Position N 58°54' W 139°12'.

Length 289.5 m; beam 36 m; draft 8.5 m.

Type: Ship. MMSI: 310327000.

Wind from 200 at 3 knots

Barometer 1016.0 mb
Air temperature 15.0 ° C
Visibility: greater than 10.8 NM
Dewpoint 10.3 ° C
Water temperature 15.0 ° C

Date/timePositionNaut miles runAvg speedWind from/ knotsBaromVisibWave heightAir tempDewpointWater temp
2015-Jun-29 09:00N 58°54' W 139°12'   200 / 31016.010.8 15.010.315.0
2015-Jun-25 23:33N 58°20' W 136°05'10 9.8
2015-Jun-25 22:33N 58°30' W 136°04'1515.4
2015-Jun-25 21:33N 58°44' W 136°16'10 1.9
2015-Jun-25 16:11N 58°50' W 136°31'1218.3
2015-Jun-25 15:33N 58°43' W 136°14'1515.3
2015-Jun-25 14:33N 58°29' W 136°03'1010.4
2015-Jun-25 13:33N 58°19' W 135°54'1212.2
2015-Jun-25 12:33N 58°16' W 135°32'1935.0
2015-Jun-25 12:00N 58°06' W 135°00'   030 / 151013.1 5.4 0.515.212.915.2
2015-Jun-22 14:33N 55°21' W 131°39'2 1.7
2015-Jun-22 13:33N 55°20' W 131°37'1212.1
2015-Jun-22 12:33N 55°12' W 131°20'1412.6
2015-Jun-22 11:26N 55°00' W 131°08'23111.6
2015-Jun-21 15:33N 51°28' W 128°37'1212.3
2015-Jun-21 14:33N 51°18' W 128°26'1312.7
2015-Jun-21 13:30N 51°09' W 128°10'1212.6
2015-Jun-21 12:33N 51°02' W 127°54'1212.4
2015-Jun-21 11:33N 50°55' W 127°39'1717.0
2015-Jun-21 10:34N 50°46' W 127°15'1716.5
2015-Jun-21 09:31N 50°40' W 126°50'1414.8
2015-Jun-21 08:33N 50°30' W 126°33'8115.2
2015-Jun-21 03:13N 49°44' W 124°49'1522.6
2015-Jun-21 02:33N 49°34' W 124°32'2222.3
2015-Jun-21 01:33N 49°23' W 124°02'2322.6
2015-Jun-21 00:33N 49°20' W 123°28'1413.4
2015-Jun-20 23:31N 49°17' W 123°06'0 0.0
2015-Jun-20 22:33N 49°17' W 123°06'0 0.0
2015-Jun-20 21:33N 49°17' W 123°06'0 0.0
2015-Jun-20 20:32N 49°17' W 123°06'0 0.0
2015-Jun-20 19:32N 49°17' W 123°06'0 0.0
2015-Jun-20 18:32N 49°17' W 123°06'0 0.0
2015-Jun-20 17:31N 49°17' W 123°06'0 0.0
2015-Jun-20 16:31N 49°17' W 123°06'0 0.0
2015-Jun-20 15:32N 49°17' W 123°06'0 0.0
2015-Jun-20 14:31N 49°17' W 123°06'0 0.2
2015-Jun-20 13:34N 49°18' W 123°06'8 8.4
2015-Jun-20 12:33N 49°18' W 123°19'1110.7
2015-Jun-20 11:33N 49°18' W 123°36'1110.9
2015-Jun-20 10:33N 49°20' W 123°52'1111.0
2015-Jun-20 09:34N 49°23' W 124°08'1010.0
2015-Jun-20 08:33N 49°27' W 124°22'10 9.9
2015-Jun-20 07:33N 49°33' W 124°34'1410.0
2015-Jun-20 06:10N 49°43' W 124°48'13113.6
2015-Jun-19 20:33N 50°55' W 127°40'1212.2
2015-Jun-19 19:32N 51°03' W 127°55'2014.4
2015-Jun-19 18:10N 51°14' W 128°21'  
Track history (hours):
 
Tides and Currents Weather Stations Pressure Air Temp Water Temp Dewpoint Dewpoint Depression Visibility Wind Speed Wind Dir Waves Ship Positions

Grand Princess

Operator: Princess Cruises

Last reported at 2015-Jun-29 09:00 UTC. Time now 2015-Jul-02 21:28 UTC.
Position N 58°54' W 139°12'.

Length 289.5 m; beam 36 m; draft 8.5 m.

Type: Ship. MMSI: 310327000.

Wind from 200 at 3 knots

Barometer 1016.0 mb
Air temperature 15.0 ° C
Visibility: greater than 10.8 NM
Dewpoint 10.3 ° C
Water temperature 15.0 ° C

Date/timePositionNaut miles runAvg speedWind from/ knotsBaromVisibWave heightAir tempDewpointWater temp
2015-Jun-29 09:00N 58°54' W 139°12'   200 / 31016.010.8 15.010.315.0
2015-Jun-25 23:33N 58°20' W 136°05'10 9.8
2015-Jun-25 22:33N 58°30' W 136°04'1515.4
2015-Jun-25 21:33N 58°44' W 136°16'10 1.9
2015-Jun-25 16:11N 58°50' W 136°31'1218.3
2015-Jun-25 15:33N 58°43' W 136°14'1515.3
2015-Jun-25 14:33N 58°29' W 136°03'1010.4
2015-Jun-25 13:33N 58°19' W 135°54'1212.2
2015-Jun-25 12:33N 58°16' W 135°32'1935.0
2015-Jun-25 12:00N 58°06' W 135°00'   030 / 151013.1 5.4 0.515.212.915.2
2015-Jun-22 14:33N 55°21' W 131°39'2 1.7
2015-Jun-22 13:33N 55°20' W 131°37'1212.1
2015-Jun-22 12:33N 55°12' W 131°20'1412.6
2015-Jun-22 11:26N 55°00' W 131°08'23111.6
2015-Jun-21 15:33N 51°28' W 128°37'1212.3
2015-Jun-21 14:33N 51°18' W 128°26'1312.7
2015-Jun-21 13:30N 51°09' W 128°10'1212.6
2015-Jun-21 12:33N 51°02' W 127°54'1212.4
2015-Jun-21 11:33N 50°55' W 127°39'1717.0
2015-Jun-21 10:34N 50°46' W 127°15'1716.5
2015-Jun-21 09:31N 50°40' W 126°50'1414.8
2015-Jun-21 08:33N 50°30' W 126°33'8115.2
2015-Jun-21 03:13N 49°44' W 124°49'1522.6
2015-Jun-21 02:33N 49°34' W 124°32'2222.3
2015-Jun-21 01:33N 49°23' W 124°02'2322.6
2015-Jun-21 00:33N 49°20' W 123°28'1413.4
2015-Jun-20 23:31N 49°17' W 123°06'0 0.0
2015-Jun-20 22:33N 49°17' W 123°06'0 0.0
2015-Jun-20 21:33N 49°17' W 123°06'0 0.0
2015-Jun-20 20:32N 49°17' W 123°06'0 0.0
2015-Jun-20 19:32N 49°17' W 123°06'0 0.0
2015-Jun-20 18:32N 49°17' W 123°06'0 0.0
2015-Jun-20 17:31N 49°17' W 123°06'0 0.0
2015-Jun-20 16:31N 49°17' W 123°06'0 0.0
2015-Jun-20 15:32N 49°17' W 123°06'0 0.0
2015-Jun-20 14:31N 49°17' W 123°06'0 0.2
2015-Jun-20 13:34N 49°18' W 123°06'8 8.4
2015-Jun-20 12:33N 49°18' W 123°19'1110.7
2015-Jun-20 11:33N 49°18' W 123°36'1110.9
2015-Jun-20 10:33N 49°20' W 123°52'1111.0
2015-Jun-20 09:34N 49°23' W 124°08'1010.0
2015-Jun-20 08:33N 49°27' W 124°22'10 9.9
2015-Jun-20 07:33N 49°33' W 124°34'1410.0
2015-Jun-20 06:10N 49°43' W 124°48'13113.6
2015-Jun-19 20:33N 50°55' W 127°40'1212.2
2015-Jun-19 19:32N 51°03' W 127°55'2014.4
2015-Jun-19 18:10N 51°14' W 128°21'  

Dump ship's entire track history